createdAt,value
2022-10-13T00:00:05.164Z,8.30
2022-10-13T00:03:09.488Z,8.50
2022-10-13T00:06:16.465Z,9.23
2022-10-13T00:09:20.753Z,8.70
2022-10-13T00:12:24.715Z,8.35
2022-10-13T00:15:28.557Z,8.70
2022-10-13T00:18:32.576Z,8.50
2022-10-13T00:21:36.550Z,9.27
2022-10-13T00:24:40.895Z,8.50
2022-10-13T00:27:44.687Z,8.52
2022-10-13T00:30:48.667Z,7.97
2022-10-13T00:33:53.851Z,8.75
2022-10-13T00:36:57.967Z,8.60
2022-10-13T00:40:01.834Z,8.85
2022-10-13T00:43:16.196Z,8.98
2022-10-13T00:46:22.382Z,8.85
2022-10-13T00:49:26.913Z,8.88
2022-10-13T00:52:32.927Z,9.15
2022-10-13T00:55:38.539Z,9.30
2022-10-13T00:58:44.083Z,8.82
2022-10-13T01:01:51.344Z,9.13
2022-10-13T01:04:57.238Z,9.10
2022-10-13T01:08:02.278Z,9.00
2022-10-13T01:11:31.395Z,9.32
2022-10-13T01:14:49.910Z,9.45
2022-10-13T01:18:20.347Z,8.45
2022-10-13T01:21:43.410Z,9.60
2022-10-13T01:24:52.561Z,8.68
2022-10-13T01:28:30.587Z,9.10
2022-10-13T01:31:38.299Z,8.48
2022-10-13T01:35:06.962Z,9.43
2022-10-13T01:38:25.095Z,10.30
2022-10-13T01:41:39.882Z,8.73
2022-10-13T01:44:50.569Z,9.13
2022-10-13T01:47:55.169Z,8.98
2022-10-13T01:51:00.309Z,8.98
2022-10-13T01:54:04.323Z,9.55
2022-10-13T01:57:32.471Z,9.32
2022-10-13T02:00:43.727Z,8.73
2022-10-13T02:04:08.714Z,9.32
2022-10-13T02:07:36.657Z,9.38
2022-10-13T02:10:51.310Z,9.32
2022-10-13T02:14:10.233Z,9.63
2022-10-13T02:17:15.669Z,9.38
2022-10-13T02:20:20.657Z,10.50
2022-10-13T02:23:25.373Z,9.27
2022-10-13T02:26:32.047Z,9.25
2022-10-13T02:29:50.191Z,9.70
2022-10-13T02:32:54.495Z,9.25
2022-10-13T02:35:58.452Z,9.48
2022-10-13T02:39:02.314Z,8.95
2022-10-13T02:42:09.064Z,9.48
2022-10-13T02:45:12.882Z,9.55
2022-10-13T02:48:16.907Z,8.98
2022-10-13T02:51:21.093Z,9.85
2022-10-13T02:54:25.044Z,9.43
2022-10-13T02:57:28.917Z,9.98
2022-10-13T03:00:33.070Z,9.20
2022-10-13T03:03:37.405Z,9.57
2022-10-13T03:06:41.483Z,9.20
2022-10-13T03:09:45.292Z,9.50
2022-10-13T03:12:49.095Z,9.85
2022-10-13T03:15:52.999Z,9.15
2022-10-13T03:18:57.279Z,9.35
2022-10-13T03:22:01.092Z,9.50
2022-10-13T03:25:05.325Z,9.73
2022-10-13T03:28:09.101Z,10.43
2022-10-13T03:31:13.011Z,10.20
2022-10-13T03:34:17.570Z,10.15
2022-10-13T03:37:21.492Z,10.77
2022-10-13T03:40:25.309Z,10.68
2022-10-13T03:43:29.485Z,10.30
2022-10-13T03:46:33.636Z,10.65
2022-10-13T03:49:38.240Z,10.55
2022-10-13T03:52:42.156Z,10.90
2022-10-13T03:55:50.890Z,11.05
2022-10-13T03:58:59.728Z,10.15
2022-10-13T04:02:04.488Z,10.45
2022-10-13T04:05:09.172Z,10.32
2022-10-13T04:08:13.934Z,10.50
2022-10-13T04:11:18.913Z,11.25
2022-10-13T04:14:23.009Z,11.35
2022-10-13T04:17:26.794Z,10.98
2022-10-13T04:20:30.524Z,10.98
2022-10-13T04:23:34.617Z,11.25
2022-10-13T04:26:39.654Z,11.60
2022-10-13T04:29:43.654Z,10.85
2022-10-13T04:32:47.432Z,11.88
2022-10-13T04:35:51.878Z,11.98
2022-10-13T04:38:56.170Z,11.80
2022-10-13T04:42:00.533Z,10.85
2022-10-13T04:45:04.966Z,11.48
2022-10-13T04:48:08.486Z,11.13
2022-10-13T04:51:15.327Z,11.57
2022-10-13T04:54:19.446Z,11.35
2022-10-13T04:57:23.647Z,12.95
2022-10-13T05:00:27.473Z,12.40
2022-10-13T05:03:31.266Z,11.95
2022-10-13T05:06:48.580Z,11.88
2022-10-13T05:10:01.834Z,12.27
2022-10-13T05:13:05.728Z,12.57
2022-10-13T05:16:12.886Z,11.90
2022-10-13T05:19:17.150Z,12.57
2022-10-13T05:22:21.735Z,12.07
2022-10-13T05:25:28.236Z,12.80
2022-10-13T05:28:34.807Z,11.90
2022-10-13T05:31:40.044Z,12.15
2022-10-13T05:34:44.836Z,12.50
2022-10-13T05:37:48.970Z,12.55
2022-10-13T05:40:52.991Z,12.95
2022-10-13T05:44:00.486Z,13.45
2022-10-13T05:47:07.522Z,14.38
2022-10-13T05:50:12.101Z,13.00
2022-10-13T05:53:16.729Z,13.65
2022-10-13T05:56:27.264Z,13.85
2022-10-13T05:59:35.131Z,13.73
2022-10-13T06:03:07.857Z,14.88
2022-10-13T06:06:11.754Z,14.50
2022-10-13T06:09:16.486Z,15.57
2022-10-13T06:12:20.976Z,13.75
2022-10-13T06:15:28.131Z,14.77
2022-10-13T06:18:32.073Z,15.68
2022-10-13T06:21:36.151Z,15.18
2022-10-13T06:24:40.326Z,15.05
2022-10-13T06:27:44.686Z,15.05
2022-10-13T06:30:54.236Z,16.42
2022-10-13T06:33:59.246Z,15.45
2022-10-13T06:37:03.387Z,16.40
2022-10-13T06:40:07.644Z,15.70
2022-10-13T06:43:11.409Z,16.30
2022-10-13T06:46:15.922Z,15.65
2022-10-13T06:49:21.000Z,15.98
2022-10-13T06:52:24.910Z,16.25
2022-10-13T06:55:29.101Z,16.42
2022-10-13T06:58:35.126Z,15.82
2022-10-13T07:01:41.733Z,16.42
2022-10-13T07:04:47.337Z,17.65
2022-10-13T07:07:54.475Z,17.27
2022-10-13T07:10:58.743Z,17.20
2022-10-13T07:14:02.681Z,17.13
2022-10-13T07:17:07.089Z,17.13
2022-10-13T07:20:11.427Z,18.00
2022-10-13T07:23:15.308Z,17.60
2022-10-13T07:26:19.344Z,17.92
2022-10-13T07:29:23.573Z,18.17
2022-10-13T07:32:27.528Z,18.30
2022-10-13T07:35:31.566Z,17.95
2022-10-13T07:38:35.517Z,18.23
2022-10-13T07:41:39.377Z,17.60
2022-10-13T07:44:43.913Z,17.25
2022-10-13T07:47:47.693Z,18.48
2022-10-13T07:50:51.779Z,18.13
2022-10-13T07:53:55.698Z,17.55
2022-10-13T07:56:59.457Z,18.60
2022-10-13T08:00:06.083Z,17.83
2022-10-13T08:03:10.043Z,17.80
2022-10-13T08:06:14.348Z,18.23
2022-10-13T08:09:18.572Z,18.55
2022-10-13T08:12:22.704Z,19.60
2022-10-13T08:15:26.725Z,18.30
2022-10-13T08:18:30.763Z,17.42
2022-10-13T08:24:58.945Z,17.70
2022-10-13T08:28:03.052Z,17.90
2022-10-13T08:31:07.574Z,17.05
2022-10-13T08:34:12.101Z,17.17
2022-10-13T08:37:18.329Z,18.40
2022-10-13T08:40:23.139Z,17.67
2022-10-13T08:43:27.653Z,17.63
2022-10-13T08:46:53.879Z,17.38
2022-10-13T08:50:02.078Z,18.48
2022-10-13T08:53:13.131Z,17.77
2022-10-13T08:56:24.662Z,17.58
2022-10-13T08:59:28.999Z,18.00
2022-10-13T09:02:32.984Z,17.65
2022-10-13T09:05:44.456Z,16.80
2022-10-13T09:08:54.235Z,16.58
2022-10-13T09:11:58.753Z,16.63
2022-10-13T09:15:09.806Z,17.13
2022-10-13T09:18:14.243Z,16.98
2022-10-13T09:21:25.386Z,16.13
2022-10-13T09:24:29.376Z,16.85
2022-10-13T09:27:51.687Z,17.05
2022-10-13T09:31:14.205Z,16.90
2022-10-13T09:34:21.520Z,16.83
2022-10-13T09:37:25.976Z,15.90
2022-10-13T09:40:33.149Z,16.58
2022-10-13T09:43:40.750Z,17.27
2022-10-13T09:46:52.762Z,17.92
2022-10-13T09:50:14.534Z,16.98
2022-10-13T09:53:34.652Z,15.93
2022-10-13T09:56:46.124Z,16.38
2022-10-13T09:59:58.732Z,17.20
2022-10-13T10:03:22.161Z,17.60
2022-10-13T10:06:27.896Z,17.10
2022-10-13T10:09:40.202Z,16.83
2022-10-13T10:12:45.137Z,17.15
2022-10-13T10:15:55.821Z,17.00
2022-10-13T10:19:43.972Z,17.45
2022-10-13T10:23:31.068Z,16.80
2022-10-13T10:27:09.588Z,17.70
2022-10-13T10:30:19.376Z,16.27
2022-10-13T10:33:54.611Z,16.65
2022-10-13T10:37:21.100Z,15.60
2022-10-13T10:41:03.973Z,16.52
2022-10-13T10:44:15.799Z,14.52
2022-10-13T10:47:30.123Z,13.90
2022-10-13T10:50:35.118Z,13.23
2022-10-13T10:53:58.303Z,13.65
2022-10-13T10:57:12.447Z,13.70
2022-10-13T11:00:20.069Z,13.48
2022-10-13T11:03:29.414Z,13.93
2022-10-13T11:06:36.142Z,12.35
2022-10-13T11:09:42.909Z,12.18
2022-10-13T11:12:48.411Z,11.80
2022-10-13T11:15:53.454Z,11.75
2022-10-13T11:19:30.604Z,12.25
2022-10-13T11:22:34.885Z,11.75
2022-10-13T11:25:43.477Z,12.68
2022-10-13T11:28:48.260Z,12.40
2022-10-13T11:31:54.685Z,13.18
2022-10-13T11:35:35.519Z,12.95
2022-10-13T11:38:41.487Z,12.43
2022-10-13T11:42:03.825Z,12.52
2022-10-13T11:45:19.442Z,12.10
2022-10-13T11:48:39.993Z,11.85
2022-10-13T11:52:21.966Z,12.02
2022-10-13T11:55:51.126Z,12.88
2022-10-13T11:58:54.971Z,11.65
2022-10-13T12:02:11.283Z,11.73
2022-10-13T12:05:28.266Z,12.10
2022-10-13T12:08:35.152Z,11.30
2022-10-13T12:11:39.388Z,11.60
2022-10-13T12:14:47.582Z,9.95
2022-10-13T12:17:51.465Z,9.15
2022-10-13T12:20:58.479Z,8.98
2022-10-13T12:24:08.834Z,9.43
2022-10-13T12:27:22.358Z,10.48
2022-10-13T12:33:38.838Z,9.02
2022-10-13T12:36:45.466Z,9.70
2022-10-13T12:39:50.032Z,8.80
2022-10-13T12:42:53.999Z,8.30
2022-10-13T12:45:58.093Z,9.20
2022-10-13T12:52:25.244Z,8.43
2022-10-13T12:55:30.991Z,9.18
2022-10-13T12:58:35.979Z,9.70
2022-10-13T13:01:40.300Z,9.30
2022-10-13T13:04:44.587Z,8.73
2022-10-13T13:07:54.933Z,8.88
2022-10-13T13:11:02.151Z,9.68
2022-10-13T13:14:35.927Z,10.55
2022-10-13T13:21:05.878Z,9.50
2022-10-13T13:24:16.458Z,8.93
2022-10-13T13:27:37.370Z,8.90
2022-10-13T13:30:41.786Z,7.93
2022-10-13T13:33:47.026Z,8.20
2022-10-13T13:36:51.032Z,7.97
2022-10-13T13:39:55.101Z,7.70
2022-10-13T13:42:59.199Z,8.95
2022-10-13T13:46:04.952Z,9.00
2022-10-13T13:49:11.666Z,8.68
2022-10-13T13:52:16.395Z,7.47
2022-10-13T13:55:20.398Z,6.70
2022-10-13T13:58:24.527Z,7.32
2022-10-13T14:01:28.361Z,7.10
2022-10-13T14:04:32.124Z,7.07
2022-10-13T14:07:36.224Z,7.43
2022-10-13T14:10:40.866Z,8.18
2022-10-13T14:13:44.526Z,7.80
2022-10-13T14:16:48.397Z,7.38
2022-10-13T14:19:52.267Z,8.20
2022-10-13T14:22:56.145Z,7.68
2022-10-13T14:25:59.908Z,7.32
2022-10-13T14:29:04.227Z,8.10
2022-10-13T14:32:08.085Z,7.45
2022-10-13T14:35:11.996Z,7.32
2022-10-13T14:38:15.978Z,7.40
2022-10-13T14:41:20.220Z,7.43
2022-10-13T14:44:24.270Z,7.50
2022-10-13T14:47:28.405Z,7.20
2022-10-13T14:50:32.647Z,7.43
2022-10-13T14:53:39.406Z,7.32
2022-10-13T14:56:44.726Z,7.93
2022-10-13T14:59:48.870Z,7.72
2022-10-13T15:02:52.792Z,7.30
2022-10-13T15:05:56.729Z,7.82
2022-10-13T15:09:00.925Z,7.65
2022-10-13T15:12:07.881Z,7.28
2022-10-13T15:15:11.990Z,7.63
2022-10-13T15:18:15.903Z,7.90
2022-10-13T15:21:20.165Z,8.48
2022-10-13T15:24:24.661Z,8.15
2022-10-13T15:27:28.511Z,8.52
2022-10-13T15:30:35.462Z,8.07
2022-10-13T15:33:42.824Z,8.57
2022-10-13T15:36:47.012Z,8.23
2022-10-13T15:39:56.011Z,7.43
2022-10-13T15:43:00.910Z,8.73
2022-10-13T15:46:07.261Z,8.10
2022-10-13T15:49:11.121Z,8.15
2022-10-13T15:52:15.253Z,8.57
2022-10-13T15:55:19.198Z,9.40
2022-10-13T15:58:23.587Z,10.00
2022-10-13T16:01:27.434Z,8.60
2022-10-13T16:04:36.409Z,8.85
2022-10-13T16:07:41.569Z,9.07
2022-10-13T16:10:45.672Z,8.32
2022-10-13T16:13:52.279Z,8.77
2022-10-13T16:16:58.432Z,8.60
2022-10-13T16:20:04.075Z,8.80
2022-10-13T16:23:08.237Z,9.13
2022-10-13T16:26:12.488Z,8.77
2022-10-13T16:29:16.878Z,8.80
2022-10-13T16:32:21.293Z,10.30
2022-10-13T16:35:25.680Z,9.82
2022-10-13T16:38:29.965Z,9.43
2022-10-13T16:41:34.365Z,9.02
2022-10-13T16:44:38.469Z,9.20
2022-10-13T16:47:42.626Z,8.85
2022-10-13T16:50:47.067Z,9.00
2022-10-13T16:53:52.677Z,8.77
2022-10-13T16:56:56.843Z,8.60
2022-10-13T17:00:00.825Z,8.40
2022-10-13T17:03:06.311Z,8.52
2022-10-13T17:06:11.211Z,9.52
2022-10-13T17:09:15.064Z,8.65
2022-10-13T17:12:19.167Z,8.90
2022-10-13T17:15:23.432Z,8.93
2022-10-13T17:18:27.735Z,8.70
2022-10-13T17:21:31.589Z,8.90
2022-10-13T17:24:35.782Z,8.27
2022-10-13T17:27:40.728Z,8.15
2022-10-13T17:30:45.227Z,8.07
2022-10-13T17:33:50.089Z,8.18
2022-10-13T17:36:54.191Z,7.20
2022-10-13T17:39:59.270Z,7.25
2022-10-13T17:43:03.482Z,8.45
2022-10-13T17:46:41.321Z,7.53
2022-10-13T17:49:45.358Z,8.07
2022-10-13T17:52:49.559Z,8.18
2022-10-13T17:55:54.701Z,7.38
2022-10-13T17:59:00.285Z,7.07
2022-10-13T18:02:04.472Z,7.40
2022-10-13T18:05:09.112Z,6.70
2022-10-13T18:08:13.321Z,6.13
2022-10-13T18:11:19.125Z,6.47
2022-10-13T18:14:24.943Z,7.18
2022-10-13T18:17:29.053Z,6.50
2022-10-13T18:20:37.784Z,6.75
2022-10-13T18:23:42.428Z,6.70
2022-10-13T18:26:46.768Z,6.88
2022-10-13T18:29:50.863Z,6.57
2022-10-13T18:32:54.810Z,7.03
2022-10-13T18:35:59.213Z,7.07
2022-10-13T18:39:11.306Z,6.80
2022-10-13T18:42:17.886Z,6.78
2022-10-13T18:45:22.026Z,7.28
2022-10-13T18:48:25.919Z,7.22
2022-10-13T18:51:35.591Z,6.90
2022-10-13T18:54:40.593Z,8.05
2022-10-13T18:57:44.798Z,8.10
2022-10-13T19:00:49.027Z,8.55
2022-10-13T19:03:54.641Z,8.27
2022-10-13T19:06:58.429Z,8.65
2022-10-13T19:10:02.446Z,8.18
2022-10-13T19:13:06.724Z,8.80
2022-10-13T19:16:16.679Z,8.77
2022-10-13T19:19:20.469Z,8.68
2022-10-13T19:22:24.719Z,9.07
2022-10-13T19:25:28.489Z,8.50
2022-10-13T19:28:32.430Z,9.15
2022-10-13T19:31:39.276Z,9.23
2022-10-13T19:34:43.157Z,9.00
2022-10-13T19:37:47.152Z,9.10
2022-10-13T19:40:52.491Z,9.70
2022-10-13T19:43:56.766Z,8.85
2022-10-13T19:47:00.842Z,9.02
2022-10-13T19:50:06.000Z,8.55
2022-10-13T19:53:11.055Z,9.32
2022-10-13T19:56:24.840Z,8.68
2022-10-13T19:59:28.859Z,8.10
2022-10-13T20:02:32.849Z,7.43
2022-10-13T20:05:38.386Z,7.93
2022-10-13T20:08:42.770Z,7.85
2022-10-13T20:11:51.586Z,7.72
2022-10-13T20:14:55.390Z,7.80
2022-10-13T20:17:59.326Z,8.25
2022-10-13T20:21:08.658Z,7.57
2022-10-13T20:24:12.979Z,8.13
2022-10-13T20:27:17.181Z,8.63
2022-10-13T20:30:21.375Z,8.88
2022-10-13T20:33:25.246Z,9.13
2022-10-13T20:36:29.158Z,9.27
2022-10-13T20:39:33.338Z,8.73
2022-10-13T20:42:37.260Z,9.32
2022-10-13T20:45:41.246Z,9.32
2022-10-13T20:49:09.375Z,9.52
2022-10-13T20:52:09.321Z,10.30
2022-10-13T20:55:13.372Z,9.57
2022-10-13T20:58:17.086Z,9.68
2022-10-13T21:01:22.355Z,9.55
2022-10-13T21:04:26.956Z,10.27
2022-10-13T21:07:31.224Z,10.93
2022-10-13T21:10:36.775Z,9.93
2022-10-13T21:13:41.931Z,10.40
2022-10-13T21:16:45.883Z,10.55
2022-10-13T21:19:49.688Z,10.85
2022-10-13T21:22:53.424Z,10.88
2022-10-13T21:26:00.761Z,10.77
2022-10-13T21:29:05.127Z,11.25
2022-10-13T21:32:09.150Z,10.93
2022-10-13T21:35:13.269Z,10.68
2022-10-13T21:38:19.933Z,10.73
2022-10-13T21:41:23.963Z,11.40
2022-10-13T21:44:28.082Z,10.80
2022-10-13T21:47:33.912Z,11.52
2022-10-13T21:50:38.130Z,10.73
2022-10-13T21:53:41.985Z,10.77
2022-10-13T21:56:46.000Z,11.07
2022-10-13T21:59:49.938Z,10.05
2022-10-13T22:02:53.874Z,11.63
2022-10-13T22:05:58.111Z,10.70
2022-10-13T22:09:04.150Z,10.48
2022-10-13T22:12:09.170Z,10.20
2022-10-13T22:15:13.272Z,10.75
2022-10-13T22:18:17.626Z,10.20
2022-10-13T22:21:28.145Z,11.40
2022-10-13T22:24:32.411Z,11.18
2022-10-13T22:27:36.710Z,11.85
2022-10-13T22:30:40.643Z,12.07
2022-10-13T22:33:44.909Z,11.90
2022-10-13T22:36:48.782Z,12.52
2022-10-13T22:39:53.036Z,11.52
2022-10-13T22:42:56.970Z,11.52
2022-10-13T22:46:04.261Z,11.43
2022-10-13T22:49:09.092Z,11.77
2022-10-13T22:52:13.241Z,12.30
2022-10-13T22:55:17.288Z,11.90
2022-10-13T22:58:21.584Z,11.65
2022-10-13T23:01:26.284Z,11.82
2022-10-13T23:04:30.291Z,12.23
2022-10-13T23:07:33.898Z,12.10
2022-10-13T23:10:37.913Z,11.30
2022-10-13T23:13:42.155Z,11.77
2022-10-13T23:16:46.157Z,12.80
2022-10-13T23:19:49.716Z,11.95
2022-10-13T23:22:53.742Z,12.50
2022-10-13T23:26:05.314Z,13.00
2022-10-13T23:29:09.601Z,12.75
2022-10-13T23:32:13.698Z,12.63
2022-10-13T23:35:17.702Z,12.80
2022-10-13T23:38:22.030Z,12.65
2022-10-13T23:41:26.675Z,12.98
2022-10-13T23:44:30.843Z,12.68
2022-10-13T23:47:35.047Z,12.45
2022-10-13T23:50:38.924Z,13.05
2022-10-13T23:53:43.060Z,12.80
2022-10-13T23:56:46.853Z,12.43
2022-10-13T23:59:50.656Z,12.50
